sensor_id;sensor_type;location;lat;lon;timestamp;pressure;altitude;pressure_sealevel;temperature;humidity
78459;BME280;67753;42.684;23.330;2023-03-01T00:00:13;95446.69;;;8.59;80.65
78459;BME280;67753;42.684;23.330;2023-03-01T00:02:16;95440.44;;;8.55;80.49
78459;BME280;67753;42.684;23.330;2023-03-01T00:04:18;95433.03;;;8.39;80.82
78459;BME280;67753;42.684;23.330;2023-03-01T00:06:20;95431.66;;;8.33;79.19
78459;BME280;67753;42.684;23.330;2023-03-01T00:08:23;95430.75;;;8.29;80.25
78459;BME280;67753;42.684;23.330;2023-03-01T00:10:25;95431.81;;;8.16;80.76
78459;BME280;67753;42.684;23.330;2023-03-01T00:12:27;95437.03;;;7.91;80.18
78459;BME280;67753;42.684;23.330;2023-03-01T00:14:29;95427.28;;;7.96;80.32
78459;BME280;67753;42.684;23.330;2023-03-01T00:16:32;95435.47;;;8.11;80.20
78459;BME280;67753;42.684;23.330;2023-03-01T00:18:38;95423.88;;;8.07;80.56
78459;BME280;67753;42.684;23.330;2023-03-01T00:20:40;95412.00;;;8.17;80.82
78459;BME280;67753;42.684;23.330;2023-03-01T00:22:42;95413.66;;;8.09;80.13
78459;BME280;67753;42.684;23.330;2023-03-01T00:24:44;95408.38;;;8.22;81.31
78459;BME280;67753;42.684;23.330;2023-03-01T00:26:46;95409.81;;;8.19;80.65
78459;BME280;67753;42.684;23.330;2023-03-01T00:28:49;95411.25;;;8.16;80.54
78459;BME280;67753;42.684;23.330;2023-03-01T00:30:51;95402.00;;;8.14;81.11
78459;BME280;67753;42.684;23.330;2023-03-01T00:32:53;95399.66;;;8.12;80.38
78459;BME280;67753;42.684;23.330;2023-03-01T00:34:56;95403.47;;;7.90;80.35
78459;BME280;67753;42.684;23.330;2023-03-01T00:36:58;95397.97;;;8.08;80.64
78459;BME280;67753;42.684;23.330;2023-03-01T00:39:09;95402.00;;;8.14;80.23
78459;BME280;67753;42.684;23.330;2023-03-01T00:41:14;95393.59;;;8.03;80.83
78459;BME280;67753;42.684;23.330;2023-03-01T00:43:17;95393.44;;;7.87;80.42
78459;BME280;67753;42.684;23.330;2023-03-01T00:45:19;95387.47;;;7.90;80.95
78459;BME280;67753;42.684;23.330;2023-03-01T00:47:20;95390.56;;;7.92;80.32
78459;BME280;67753;42.684;23.330;2023-03-01T00:49:22;95396.94;;;7.79;80.61
78459;BME280;67753;42.684;23.330;2023-03-01T00:51:30;95390.47;;;7.68;81.11
78459;BME280;67753;42.684;23.330;2023-03-01T00:53:32;95385.66;;;7.94;81.29
78459;BME280;67753;42.684;23.330;2023-03-01T00:55:35;95392.78;;;7.90;80.77
78459;BME280;67753;42.684;23.330;2023-03-01T00:57:37;95390.31;;;7.85;80.63
78459;BME280;67753;42.684;23.330;2023-03-01T00:59:40;95386.81;;;7.73;80.57
78459;BME280;67753;42.684;23.330;2023-03-01T01:01:41;95380.03;;;7.75;80.90
78459;BME280;67753;42.684;23.330;2023-03-01T01:03:45;95386.00;;;7.93;81.10
78459;BME280;67753;42.684;23.330;2023-03-01T01:05:47;95396.44;;;7.86;79.93
78459;BME280;67753;42.684;23.330;2023-03-01T01:07:50;95395.91;;;7.92;81.86
78459;BME280;67753;42.684;23.330;2023-03-01T01:09:52;95402.34;;;7.91;79.39
78459;BME280;67753;42.684;23.330;2023-03-01T01:11:54;95391.16;;;7.98;80.96
78459;BME280;67753;42.684;23.330;2023-03-01T01:13:57;95397.97;;;8.08;80.34
78459;BME280;67753;42.684;23.330;2023-03-01T01:16:00;95391.63;;;7.79;80.45
78459;BME280;67753;42.684;23.330;2023-03-01T01:18:03;95402.81;;;7.73;80.44
78459;BME280;67753;42.684;23.330;2023-03-01T01:20:06;95396.44;;;7.65;80.88
78459;BME280;67753;42.684;23.330;2023-03-01T01:22:08;95393.19;;;7.59;81.16
78459;BME280;67753;42.684;23.330;2023-03-01T01:24:12;95388.44;;;7.65;81.14
78459;BME280;67753;42.684;23.330;2023-03-01T01:26:15;95382.63;;;7.84;81.66
78459;BME280;67753;42.684;23.330;2023-03-01T01:28:18;95384.91;;;7.73;81.15
78459;BME280;67753;42.684;23.330;2023-03-01T01:30:20;95381.06;;;7.62;80.81
78459;BME280;67753;42.684;23.330;2023-03-01T01:32:22;95389.25;;;7.57;80.49
78459;BME280;67753;42.684;23.330;2023-03-01T01:34:24;95384.59;;;7.54;80.77
78459;BME280;67753;42.684;23.330;2023-03-01T01:36:26;95385.50;;;7.79;81.46
78459;BME280;67753;42.684;23.330;2023-03-01T01:38:28;95399.47;;;7.55;80.53
78459;BME280;67753;42.684;23.330;2023-03-01T01:40:31;95406.03;;;7.57;79.92
78459;BME280;67753;42.684;23.330;2023-03-01T01:42:33;95403.97;;;7.63;79.92
78459;BME280;67753;42.684;23.330;2023-03-01T01:44:35;95411.78;;;7.68;80.61
78459;BME280;67753;42.684;23.330;2023-03-01T01:46:39;95411.25;;;7.54;79.77
78459;BME280;67753;42.684;23.330;2023-03-01T01:48:44;95413.47;;;7.73;79.74
78459;BME280;67753;42.684;23.330;2023-03-01T01:50:54;95416.47;;;7.71;80.25
78459;BME280;67753;42.684;23.330;2023-03-01T01:52:57;95403.84;;;7.80;80.27
78459;BME280;67753;42.684;23.330;2023-03-01T01:55:03;95407.81;;;7.74;79.79
78459;BME280;67753;42.684;23.330;2023-03-01T01:57:11;95400.44;;;7.71;79.89
78459;BME280;67753;42.684;23.330;2023-03-01T01:59:15;95391.72;;;7.62;79.76
78459;BME280;67753;42.684;23.330;2023-03-01T02:01:17;95394.88;;;7.64;80.67
78459;BME280;67753;42.684;23.330;2023-03-01T02:03:25;95390.50;;;7.59;78.81
78459;BME280;67753;42.684;23.330;2023-03-01T02:05:38;95391.88;;;7.65;79.74
78459;BME280;67753;42.684;23.330;2023-03-01T02:07:44;95395.66;;;7.64;78.25
78459;BME280;67753;42.684;23.330;2023-03-01T02:09:48;95391.94;;;7.57;79.06
78459;BME280;67753;42.684;23.330;2023-03-01T02:11:51;95382.38;;;7.56;77.59
78459;BME280;67753;42.684;23.330;2023-03-01T02:13:55;95375.22;;;7.48;78.86
78459;BME280;67753;42.684;23.330;2023-03-01T02:15:57;95371.47;;;7.49;79.72
78459;BME280;67753;42.684;23.330;2023-03-01T02:17:59;95367.00;;;7.53;79.32
78459;BME280;67753;42.684;23.330;2023-03-01T02:20:11;95381.69;;;7.38;78.39
78459;BME280;67753;42.684;23.330;2023-03-01T02:22:22;95374.56;;;7.51;78.92
78459;BME280;67753;42.684;23.330;2023-03-01T02:24:31;95381.84;;;7.41;78.41
78459;BME280;67753;42.684;23.330;2023-03-01T02:26:40;95368.50;;;7.41;78.48
78459;BME280;67753;42.684;23.330;2023-03-01T02:28:47;95369.25;;;7.51;78.79
78459;BME280;67753;42.684;23.330;2023-03-01T02:30:50;95380.81;;;7.55;78.44
78459;BME280;67753;42.684;23.330;2023-03-01T02:33:10;95378.88;;;7.64;78.82
78459;BME280;67753;42.684;23.330;2023-03-01T02:35:14;95387.06;;;7.59;78.09
78459;BME280;67753;42.684;23.330;2023-03-01T02:37:17;95394.88;;;7.64;79.09
78459;BME280;67753;42.684;23.330;2023-03-01T02:39:27;95397.53;;;7.64;78.67
78459;BME280;67753;42.684;23.330;2023-03-01T02:41:33;95395.78;;;7.68;79.51
78459;BME280;67753;42.684;23.330;2023-03-01T02:43:37;95392.00;;;7.69;79.08
78459;BME280;67753;42.684;23.330;2023-03-01T02:45:48;95386.94;;;7.55;78.75
78459;BME280;67753;42.684;23.330;2023-03-01T02:47:53;95383.56;;;7.67;79.97
78459;BME280;67753;42.684;23.330;2023-03-01T02:49:55;95383.00;;;7.53;78.44
78459;BME280;67753;42.684;23.330;2023-03-01T02:52:17;95389.00;;;7.50;79.36
78459;BME280;67753;42.684;23.330;2023-03-01T02:54:28;95382.19;;;7.61;79.91
78459;BME280;67753;42.684;23.330;2023-03-01T02:56:31;95382.22;;;7.52;79.18
78459;BME280;67753;42.684;23.330;2023-03-01T02:58:33;95378.78;;;7.52;78.94
78459;BME280;67753;42.684;23.330;2023-03-01T03:00:47;95385.81;;;7.56;79.23
78459;BME280;67753;42.684;23.330;2023-03-01T03:02:51;95388.69;;;7.51;79.13
78459;BME280;67753;42.684;23.330;2023-03-01T03:04:53;95395.72;;;7.77;79.29
78459;BME280;67753;42.684;23.330;2023-03-01T03:06:55;95389.41;;;7.60;78.73
78459;BME280;67753;42.684;23.330;2023-03-01T03:08:57;95377.63;;;7.82;80.30
78459;BME280;67753;42.684;23.330;2023-03-01T03:10:59;95391.63;;;7.79;78.69
78459;BME280;67753;42.684;23.330;2023-03-01T03:13:04;95385.56;;;7.70;78.82
78459;BME280;67753;42.684;23.330;2023-03-01T03:15:07;95387.91;;;7.72;79.73
78459;BME280;67753;42.684;23.330;2023-03-01T03:17:15;95396.81;;;7.55;78.87
78459;BME280;67753;42.684;23.330;2023-03-01T03:19:18;95394.59;;;7.57;79.38
78459;BME280;67753;42.684;23.330;2023-03-01T03:21:20;95392.66;;;7.66;80.12
78459;BME280;67753;42.684;23.330;2023-03-01T03:23:22;95395.84;;;7.80;79.82
78459;BME280;67753;42.684;23.330;2023-03-01T03:25:24;95392.25;;;7.76;79.32
78459;BME280;67753;42.684;23.330;2023-03-01T03:27:28;95391.28;;;7.60;78.98
78459;BME280;67753;42.684;23.330;2023-03-01T03:29:32;95401.38;;;7.75;79.50
78459;BME280;67753;42.684;23.330;2023-03-01T03:31:34;95398.19;;;7.61;79.59
78459;BME280;67753;42.684;23.330;2023-03-01T03:33:38;95398.75;;;7.66;79.07
78459;BME280;67753;42.684;23.330;2023-03-01T03:35:42;95397.44;;;7.52;78.81
78459;BME280;67753;42.684;23.330;2023-03-01T03:37:44;95400.25;;;7.55;79.81
78459;BME280;67753;42.684;23.330;2023-03-01T03:40:05;95395.91;;;7.51;79.02
78459;BME280;67753;42.684;23.330;2023-03-01T03:42:15;95405.97;;;7.66;79.57
78459;BME280;67753;42.684;23.330;2023-03-01T03:44:17;95404.16;;;7.79;79.71
78459;BME280;67753;42.684;23.330;2023-03-01T03:46:19;95400.59;;;7.75;80.10
78459;BME280;67753;42.684;23.330;2023-03-01T03:48:21;95394.28;;;7.79;79.57
78459;BME280;67753;42.684;23.330;2023-03-01T03:50:25;95398.38;;;7.56;78.32
78459;BME280;67753;42.684;23.330;2023-03-01T03:52:27;95401.38;;;7.75;80.42
78459;BME280;67753;42.684;23.330;2023-03-01T03:54:28;95405.22;;;7.86;79.35
78459;BME280;67753;42.684;23.330;2023-03-01T03:56:31;95412.22;;;7.70;78.71
78459;BME280;67753;42.684;23.330;2023-03-01T03:58:33;95404.72;;;7.72;80.32
78459;BME280;67753;42.684;23.330;2023-03-01T04:00:36;95407.88;;;7.86;79.78
78459;BME280;67753;42.684;23.330;2023-03-01T04:02:39;95407.47;;;7.76;79.80
78459;BME280;67753;42.684;23.330;2023-03-01T04:04:41;95400.59;;;7.54;79.14
78459;BME280;67753;42.684;23.330;2023-03-01T04:06:44;95405.66;;;7.47;80.09
78459;BME280;67753;42.684;23.330;2023-03-01T04:08:46;95412.00;;;7.33;78.94
78459;BME280;67753;42.684;23.330;2023-03-01T04:10:52;95412.53;;;7.48;79.44
78459;BME280;67753;42.684;23.330;2023-03-01T04:12:56;95406.19;;;7.61;79.68
78459;BME280;67753;42.684;23.330;2023-03-01T04:15:00;95407.22;;;7.68;79.24
78459;BME280;67753;42.684;23.330;2023-03-01T04:17:02;95405.59;;;7.34;78.53
78459;BME280;67753;42.684;23.330;2023-03-01T04:19:05;95412.78;;;7.34;80.10
78459;BME280;67753;42.684;23.330;2023-03-01T04:21:10;95405.25;;;7.36;79.61
78459;BME280;67753;42.684;23.330;2023-03-01T04:23:14;95412.09;;;7.46;79.92
78459;BME280;67753;42.684;23.330;2023-03-01T04:25:19;95408.25;;;7.34;79.88
78459;BME280;67753;42.684;23.330;2023-03-01T04:27:21;95401.72;;;7.23;79.44
78459;BME280;67753;42.684;23.330;2023-03-01T04:29:22;95405.59;;;7.34;80.12
78459;BME280;67753;42.684;23.330;2023-03-01T04:31:24;95409.81;;;7.35;79.75
78459;BME280;67753;42.684;23.330;2023-03-01T04:33:26;95409.13;;;7.38;80.45
78459;BME280;67753;42.684;23.330;2023-03-01T04:35:28;95412.78;;;7.34;79.52
78459;BME280;67753;42.684;23.330;2023-03-01T04:37:30;95405.78;;;7.29;80.52
78459;BME280;67753;42.684;23.330;2023-03-01T04:39:34;95411.69;;;7.35;80.02
78459;BME280;67753;42.684;23.330;2023-03-01T04:41:46;95403.31;;;7.45;80.37
78459;BME280;67753;42.684;23.330;2023-03-01T04:43:48;95401.69;;;7.53;80.14
78459;BME280;67753;42.684;23.330;2023-03-01T04:45:50;95412.44;;;7.65;80.27
78459;BME280;67753;42.684;23.330;2023-03-01T04:47:53;95403.31;;;7.66;79.82
78459;BME280;67753;42.684;23.330;2023-03-01T04:49:55;95398.38;;;7.56;80.44
78459;BME280;67753;42.684;23.330;2023-03-01T04:51:57;95402.16;;;7.55;79.90
78459;BME280;67753;42.684;23.330;2023-03-01T04:54:02;95399.13;;;7.35;80.23
78459;BME280;67753;42.684;23.330;2023-03-01T04:56:07;95396.28;;;7.40;80.86
78459;BME280;67753;42.684;23.330;2023-03-01T04:58:09;95396.06;;;7.25;79.73
78459;BME280;67753;42.684;23.330;2023-03-01T05:00:13;95397.16;;;7.24;80.05
78459;BME280;67753;42.684;23.330;2023-03-01T05:02:24;95403.03;;;7.08;79.94
78459;BME280;67753;42.684;23.330;2023-03-01T05:04:25;95400.59;;;7.24;80.20
78459;BME280;67753;42.684;23.330;2023-03-01T05:06:27;95395.81;;;7.38;79.93
78459;BME280;67753;42.684;23.330;2023-03-01T05:08:30;95394.03;;;7.22;79.60
78459;BME280;67753;42.684;23.330;2023-03-01T05:10:35;95397.94;;;7.24;79.70
78459;BME280;67753;42.684;23.330;2023-03-01T05:12:40;95405.28;;;7.27;80.37
78459;BME280;67753;42.684;23.330;2023-03-01T05:14:42;95402.00;;;7.30;79.85
78459;BME280;67753;42.684;23.330;2023-03-01T05:16:44;95400.69;;;7.36;80.42
78459;BME280;67753;42.684;23.330;2023-03-01T05:18:46;95403.91;;;7.51;80.80
78459;BME280;67753;42.684;23.330;2023-03-01T05:20:51;95409.97;;;7.60;80.49
78459;BME280;67753;42.684;23.330;2023-03-01T05:22:58;95410.53;;;7.45;79.07
78459;BME280;67753;42.684;23.330;2023-03-01T05:25:00;95404.09;;;7.46;80.24
78459;BME280;67753;42.684;23.330;2023-03-01T05:27:03;95403.81;;;7.38;79.98
78459;BME280;67753;42.684;23.330;2023-03-01T05:29:07;95402.53;;;7.45;80.18
78459;BME280;67753;42.684;23.330;2023-03-01T05:31:10;95403.56;;;7.52;80.12
78459;BME280;67753;42.684;23.330;2023-03-01T05:33:12;95403.44;;;7.49;80.39
78459;BME280;67753;42.684;23.330;2023-03-01T05:35:15;95407.28;;;7.39;80.08
78459;BME280;67753;42.684;23.330;2023-03-01T05:37:19;95401.63;;;7.40;79.32
78459;BME280;67753;42.684;23.330;2023-03-01T05:39:23;95406.56;;;7.51;79.95
78459;BME280;67753;42.684;23.330;2023-03-01T05:41:26;95418.03;;;7.72;79.74
78459;BME280;67753;42.684;23.330;2023-03-01T05:43:30;95417.25;;;7.72;79.38
78459;BME280;67753;42.684;23.330;2023-03-01T05:45:36;95412.44;;;7.65;79.54
78459;BME280;67753;42.684;23.330;2023-03-01T05:47:39;95414.66;;;7.63;79.59
78459;BME280;67753;42.684;23.330;2023-03-01T05:49:43;95414.38;;;7.56;79.00
78459;BME280;67753;42.684;23.330;2023-03-01T05:51:48;95419.53;;;7.31;79.28
78459;BME280;67753;42.684;23.330;2023-03-01T05:53:50;95419.81;;;7.38;79.48
78459;BME280;67753;42.684;23.330;2023-03-01T05:55:52;95423.72;;;7.62;79.94
78459;BME280;67753;42.684;23.330;2023-03-01T05:57:54;95419.84;;;7.80;79.43
78459;BME280;67753;42.684;23.330;2023-03-01T05:59:56;95432.75;;;7.78;78.77
78459;BME280;67753;42.684;23.330;2023-03-01T06:01:59;95427.53;;;7.82;79.14
78459;BME280;67753;42.684;23.330;2023-03-01T06:04:01;95436.75;;;7.84;78.55
78459;BME280;67753;42.684;23.330;2023-03-01T06:06:04;95444.72;;;7.72;78.12
78459;BME280;67753;42.684;23.330;2023-03-01T06:08:06;95443.41;;;7.78;78.55
78459;BME280;67753;42.684;23.330;2023-03-01T06:10:10;95444.13;;;7.87;79.01
78459;BME280;67753;42.684;23.330;2023-03-01T06:12:13;95448.22;;;7.64;77.86
78459;BME280;67753;42.684;23.330;2023-03-01T06:14:14;95449.75;;;7.65;78.43
78459;BME280;67753;42.684;23.330;2023-03-01T06:16:16;95454.19;;;7.61;78.82
78459;BME280;67753;42.684;23.330;2023-03-01T06:18:19;95466.94;;;7.55;78.31
78459;BME280;67753;42.684;23.330;2023-03-01T06:20:23;95467.88;;;7.51;79.01
78459;BME280;67753;42.684;23.330;2023-03-01T06:22:26;95457.97;;;7.60;78.51
78459;BME280;67753;42.684;23.330;2023-03-01T06:24:28;95459.25;;;7.54;78.00
78459;BME280;67753;42.684;23.330;2023-03-01T06:26:30;95454.03;;;7.57;78.13
78459;BME280;67753;42.684;23.330;2023-03-01T06:28:32;95451.31;;;7.66;78.55
78459;BME280;67753;42.684;23.330;2023-03-01T06:30:36;95459.59;;;7.73;78.14
78459;BME280;67753;42.684;23.330;2023-03-01T06:32:38;95459.41;;;7.78;77.62
78459;BME280;67753;42.684;23.330;2023-03-01T06:34:44;95458.41;;;7.62;77.25
78459;BME280;67753;42.684;23.330;2023-03-01T06:36:46;95460.84;;;7.97;77.80
78459;BME280;67753;42.684;23.330;2023-03-01T06:38:48;95458.00;;;8.02;77.12
78459;BME280;67753;42.684;23.330;2023-03-01T06:40:54;95462.03;;;8.08;77.07
78459;BME280;67753;42.684;23.330;2023-03-01T06:42:57;95462.75;;;7.96;76.17
78459;BME280;67753;42.684;23.330;2023-03-01T06:45:00;95455.13;;;8.07;77.52
78459;BME280;67753;42.684;23.330;2023-03-01T06:47:03;95464.63;;;8.16;77.04
78459;BME280;67753;42.684;23.330;2023-03-01T06:49:04;95467.03;;;8.30;76.89
78459;BME280;67753;42.684;23.330;2023-03-01T06:51:11;95453.47;;;8.35;76.41
78459;BME280;67753;42.684;23.330;2023-03-01T06:53:12;95463.56;;;8.30;75.91
78459;BME280;67753;42.684;23.330;2023-03-01T06:55:14;95460.44;;;8.49;75.94
78459;BME280;67753;42.684;23.330;2023-03-01T06:57:16;95464.47;;;8.55;74.98
78459;BME280;67753;42.684;23.330;2023-03-01T06:59:18;95462.50;;;8.64;75.61
78459;BME280;67753;42.684;23.330;2023-03-01T07:01:20;95458.47;;;8.58;74.93
78459;BME280;67753;42.684;23.330;2023-03-01T07:03:22;95467.28;;;8.58;75.04
78459;BME280;67753;42.684;23.330;2023-03-01T07:05:24;95468.66;;;8.43;75.61
78459;BME280;67753;42.684;23.330;2023-03-01T07:07:29;95474.38;;;8.33;75.50
78459;BME280;67753;42.684;23.330;2023-03-01T07:09:31;95466.84;;;8.14;75.30
78459;BME280;67753;42.684;23.330;2023-03-01T07:11:33;95469.94;;;8.58;75.92
78459;BME280;67753;42.684;23.330;2023-03-01T07:13:35;95468.38;;;8.90;76.06
78459;BME280;67753;42.684;23.330;2023-03-01T07:15:39;95465.00;;;8.81;75.40
78459;BME280;67753;42.684;23.330;2023-03-01T07:17:41;95468.19;;;9.20;75.05
78459;BME280;67753;42.684;23.330;2023-03-01T07:19:44;95475.53;;;9.23;74.37
78459;BME280;67753;42.684;23.330;2023-03-01T07:21:47;95467.94;;;9.01;73.25
78459;BME280;67753;42.684;23.330;2023-03-01T07:23:50;95473.66;;;9.24;74.58
78459;BME280;67753;42.684;23.330;2023-03-01T07:25:52;95472.72;;;9.07;73.47
78459;BME280;67753;42.684;23.330;2023-03-01T07:27:55;95465.19;;;9.34;73.55
78459;BME280;67753;42.684;23.330;2023-03-01T07:29:57;95471.06;;;9.39;73.01
78459;BME280;67753;42.684;23.330;2023-03-01T07:31:59;95459.41;;;9.32;72.27
78459;BME280;67753;42.684;23.330;2023-03-01T07:34:01;95469.16;;;9.64;72.54
78459;BME280;67753;42.684;23.330;2023-03-01T07:36:04;95467.72;;;9.55;72.14
78459;BME280;67753;42.684;23.330;2023-03-01T07:38:06;95462.19;;;9.60;71.51
78459;BME280;67753;42.684;23.330;2023-03-01T07:40:11;95463.81;;;9.77;70.77
78459;BME280;67753;42.684;23.330;2023-03-01T07:42:13;95462.34;;;9.91;70.70
78459;BME280;67753;42.684;23.330;2023-03-01T07:44:18;95470.00;;;10.05;70.25
78459;BME280;67753;42.684;23.330;2023-03-01T07:46:20;95475.53;;;9.84;70.28
78459;BME280;67753;42.684;23.330;2023-03-01T07:48:22;95464.91;;;9.88;69.42
78459;BME280;67753;42.684;23.330;2023-03-01T07:50:25;95464.75;;;10.09;69.09
78459;BME280;67753;42.684;23.330;2023-03-01T07:52:27;95461.13;;;10.41;69.26
78459;BME280;67753;42.684;23.330;2023-03-01T07:54:29;95463.72;;;10.54;68.45
78459;BME280;67753;42.684;23.330;2023-03-01T07:56:32;95456.25;;;10.19;67.21
78459;BME280;67753;42.684;23.330;2023-03-01T07:58:35;95452.09;;;9.93;69.38
78459;BME280;67753;42.684;23.330;2023-03-01T08:00:38;95452.69;;;10.15;69.49
78459;BME280;67753;42.684;23.330;2023-03-01T08:02:39;95449.88;;;10.23;69.15
78459;BME280;67753;42.684;23.330;2023-03-01T08:04:42;95443.00;;;10.51;68.71
78459;BME280;67753;42.684;23.330;2023-03-01T08:06:44;95450.09;;;10.59;68.00
78459;BME280;67753;42.684;23.330;2023-03-01T08:08:46;95450.41;;;10.41;66.07
78459;BME280;67753;42.684;23.330;2023-03-01T08:10:47;95445.91;;;10.45;68.07
78459;BME280;67753;42.684;23.330;2023-03-01T08:12:52;95453.13;;;10.29;68.58
78459;BME280;67753;42.684;23.330;2023-03-01T08:14:54;95447.53;;;10.22;67.85
78459;BME280;67753;42.684;23.330;2023-03-01T08:16:57;95448.31;;;10.22;67.83
78459;BME280;67753;42.684;23.330;2023-03-01T08:19:03;95439.69;;;10.41;66.74
78459;BME280;67753;42.684;23.330;2023-03-01T08:21:07;95446.06;;;10.81;67.41
78459;BME280;67753;42.684;23.330;2023-03-01T08:23:10;95442.94;;;9.94;69.01
78459;BME280;67753;42.684;23.330;2023-03-01T08:25:12;95440.22;;;10.47;69.72
78459;BME280;67753;42.684;23.330;2023-03-01T08:27:15;95433.53;;;11.32;71.71
78459;BME280;67753;42.684;23.330;2023-03-01T08:29:19;95436.75;;;10.46;72.92
78459;BME280;67753;42.684;23.330;2023-03-01T08:31:23;95440.59;;;10.77;68.81
78459;BME280;67753;42.684;23.330;2023-03-01T08:33:26;95440.81;;;10.84;71.80
78459;BME280;67753;42.684;23.330;2023-03-01T08:35:28;95440.59;;;10.77;68.41
78459;BME280;67753;42.684;23.330;2023-03-01T08:37:30;95442.25;;;9.97;68.17
78459;BME280;67753;42.684;23.330;2023-03-01T08:39:33;95438.16;;;10.16;67.56
78459;BME280;67753;42.684;23.330;2023-03-01T08:41:36;95441.09;;;10.11;68.69
78459;BME280;67753;42.684;23.330;2023-03-01T08:43:37;95431.97;;;10.12;70.70
78459;BME280;67753;42.684;23.330;2023-03-01T08:45:41;95444.91;;;10.66;66.70
78459;BME280;67753;42.684;23.330;2023-03-01T08:47:43;95443.34;;;10.09;67.78
78459;BME280;67753;42.684;23.330;2023-03-01T08:49:45;95440.84;;;10.28;68.06
78459;BME280;67753;42.684;23.330;2023-03-01T08:51:48;95442.44;;;10.05;66.80
78459;BME280;67753;42.684;23.330;2023-03-01T08:53:50;95444.38;;;10.44;68.74
78459;BME280;67753;42.684;23.330;2023-03-01T08:55:51;95445.78;;;10.26;66.05
78459;BME280;67753;42.684;23.330;2023-03-01T08:57:53;95442.03;;;11.03;65.13
78459;BME280;67753;42.684;23.330;2023-03-01T08:59:59;95452.59;;;10.67;64.43
78459;BME280;67753;42.684;23.330;2023-03-01T09:02:02;95454.72;;;10.90;65.17
78459;BME280;67753;42.684;23.330;2023-03-01T09:04:04;95447.22;;;11.27;63.44
78459;BME280;67753;42.684;23.330;2023-03-01T09:06:07;95438.06;;;10.96;65.45
78459;BME280;67753;42.684;23.330;2023-03-01T09:08:09;95445.19;;;11.56;61.98
78459;BME280;67753;42.684;23.330;2023-03-01T09:10:11;95447.44;;;12.82;58.38
78459;BME280;67753;42.684;23.330;2023-03-01T09:12:12;95448.59;;;12.23;59.94
78459;BME280;67753;42.684;23.330;2023-03-01T09:14:14;95452.88;;;11.73;60.43
78459;BME280;67753;42.684;23.330;2023-03-01T09:16:19;95449.69;;;11.83;61.95
78459;BME280;67753;42.684;23.330;2023-03-01T09:18:23;95453.81;;;11.30;60.72
78459;BME280;67753;42.684;23.330;2023-03-01T09:20:26;95449.41;;;11.06;61.91
78459;BME280;67753;42.684;23.330;2023-03-01T09:22:28;95445.03;;;11.33;63.54
78459;BME280;67753;42.684;23.330;2023-03-01T09:24:30;95440.75;;;11.79;61.71
78459;BME280;67753;42.684;23.330;2023-03-01T09:26:32;95444.97;;;11.80;59.81
78459;BME280;67753;42.684;23.330;2023-03-01T09:28:34;95445.47;;;12.01;60.58
78459;BME280;67753;42.684;23.330;2023-03-01T09:30:36;95441.06;;;11.93;59.96
78459;BME280;67753;42.684;23.330;2023-03-01T09:32:39;95438.63;;;11.53;62.01
78459;BME280;67753;42.684;23.330;2023-03-01T09:34:45;95451.69;;;11.55;61.37
78459;BME280;67753;42.684;23.330;2023-03-01T09:37:05;95453.44;;;11.63;62.29
78459;BME280;67753;42.684;23.330;2023-03-01T09:39:07;95454.09;;;11.91;60.69
78459;BME280;67753;42.684;23.330;2023-03-01T09:41:11;95447.34;;;11.66;61.06
78459;BME280;67753;42.684;23.330;2023-03-01T09:43:23;95444.13;;;11.76;60.17
78459;BME280;67753;42.684;23.330;2023-03-01T09:45:32;95439.53;;;12.31;59.41
78459;BME280;67753;42.684;23.330;2023-03-01T09:47:35;95434.38;;;12.42;58.96
78459;BME280;67753;42.684;23.330;2023-03-01T09:49:41;95431.56;;;12.15;58.95
78459;BME280;67753;42.684;23.330;2023-03-01T09:51:57;95435.59;;;12.25;59.53
78459;BME280;67753;42.684;23.330;2023-03-01T09:54:02;95431.28;;;12.40;58.80
78459;BME280;67753;42.684;23.330;2023-03-01T09:56:12;95414.84;;;12.45;58.49
78459;BME280;67753;42.684;23.330;2023-03-01T09:58:33;95425.50;;;13.03;57.62
78459;BME280;67753;42.684;23.330;2023-03-01T10:00:39;95425.94;;;12.63;57.81
78459;BME280;67753;42.684;23.330;2023-03-01T10:02:45;95424.63;;;12.95;58.14
78459;BME280;67753;42.684;23.330;2023-03-01T10:04:50;95409.22;;;12.73;57.87
78459;BME280;67753;42.684;23.330;2023-03-01T10:07:02;95411.16;;;12.72;57.72
78459;BME280;67753;42.684;23.330;2023-03-01T10:09:10;95412.88;;;12.84;57.24
78459;BME280;67753;42.684;23.330;2023-03-01T10:11:22;95413.47;;;13.20;57.44
78459;BME280;67753;42.684;23.330;2023-03-01T10:13:28;95412.59;;;13.35;57.46
78459;BME280;67753;42.684;23.330;2023-03-01T10:15:34;95409.72;;;13.01;58.17
78459;BME280;67753;42.684;23.330;2023-03-01T10:17:43;95403.69;;;12.85;57.45
78459;BME280;67753;42.684;23.330;2023-03-01T10:19:47;95411.69;;;13.04;57.49
78459;BME280;67753;42.684;23.330;2023-03-01T10:21:51;95405.53;;;12.81;57.88
78459;BME280;67753;42.684;23.330;2023-03-01T10:24:00;95407.00;;;12.56;58.27
78459;BME280;67753;42.684;23.330;2023-03-01T10:26:15;95400.03;;;13.20;56.90
78459;BME280;67753;42.684;23.330;2023-03-01T10:28:26;95394.50;;;13.32;57.80
78459;BME280;67753;42.684;23.330;2023-03-01T10:30:35;95382.28;;;13.65;56.15
78459;BME280;67753;42.684;23.330;2023-03-01T10:32:39;95386.16;;;13.97;56.80
78459;BME280;67753;42.684;23.330;2023-03-01T10:34:42;95389.88;;;14.19;54.12
78459;BME280;67753;42.684;23.330;2023-03-01T10:36:48;95391.31;;;14.10;55.23
78459;BME280;67753;42.684;23.330;2023-03-01T10:38:52;95390.81;;;14.34;54.03
78459;BME280;67753;42.684;23.330;2023-03-01T10:40:57;95389.31;;;13.46;55.16
78459;BME280;67753;42.684;23.330;2023-03-01T10:43:04;95380.28;;;13.35;56.84
78459;BME280;67753;42.684;23.330;2023-03-01T10:45:29;95383.97;;;13.76;55.24
78459;BME280;67753;42.684;23.330;2023-03-01T10:47:32;95381.34;;;14.47;54.75
78459;BME280;67753;42.684;23.330;2023-03-01T10:49:35;95388.13;;;14.34;53.11
78459;BME280;67753;42.684;23.330;2023-03-01T10:51:38;95392.13;;;14.47;53.16
78459;BME280;67753;42.684;23.330;2023-03-01T10:53:42;95392.06;;;14.40;53.20